sensor_id;sensor_type;location;lat;lon;timestamp;pressure;altitude;pressure_sealevel;temperature;humidity
804;BME280;25687;49.976;8.240;2023-05-19T00:00:58;100824.06;;;10.13;98.56
804;BME280;25687;49.976;8.240;2023-05-19T00:03:24;100820.72;;;10.11;99.62
804;BME280;25687;49.976;8.240;2023-05-19T00:05:52;100821.28;;;9.97;100.00
804;BME280;25687;49.976;8.240;2023-05-19T00:08:18;100820.31;;;10.00;100.00
804;BME280;25687;49.976;8.240;2023-05-19T00:10:44;100823.31;;;9.89;100.00
804;BME280;25687;49.976;8.240;2023-05-19T00:13:10;100815.94;;;10.02;99.77
804;BME280;25687;49.976;8.240;2023-05-19T00:15:35;100816.00;;;10.00;99.26
804;BME280;25687;49.976;8.240;2023-05-19T00:18:01;100826.75;;;10.10;99.00
804;BME280;25687;49.976;8.240;2023-05-19T00:20:26;100817.38;;;10.09;98.20
804;BME280;25687;49.976;8.240;2023-05-19T00:22:51;100816.53;;;10.09;98.19
804;BME280;25687;49.976;8.240;2023-05-19T00:25:17;100820.41;;;10.19;97.41
804;BME280;25687;49.976;8.240;2023-05-19T00:27:42;100814.47;;;10.17;97.20
804;BME280;25687;49.976;8.240;2023-05-19T00:30:08;100806.81;;;10.15;97.11
804;BME280;25687;49.976;8.240;2023-05-19T00:32:33;100806.81;;;10.15;96.63
804;BME280;25687;49.976;8.240;2023-05-19T00:34:58;100809.94;;;10.24;96.64
804;BME280;25687;49.976;8.240;2023-05-19T00:37:24;100807.81;;;10.33;96.26
804;BME280;25687;49.976;8.240;2023-05-19T00:39:50;100805.50;;;10.27;96.20
804;BME280;25687;49.976;8.240;2023-05-19T00:42:15;100803.00;;;10.26;96.92
804;BME280;25687;49.976;8.240;2023-05-19T00:44:40;100800.78;;;10.16;96.71
804;BME280;25687;49.976;8.240;2023-05-19T00:47:09;100795.41;;;10.23;96.71
804;BME280;25687;49.976;8.240;2023-05-19T00:49:34;100793.84;;;10.18;96.42
804;BME280;25687;49.976;8.240;2023-05-19T00:52:00;100791.34;;;10.17;97.06
804;BME280;25687;49.976;8.240;2023-05-19T00:54:27;100789.22;;;10.06;96.72
804;BME280;25687;49.976;8.240;2023-05-19T00:56:55;100791.41;;;10.15;96.05
804;BME280;25687;49.976;8.240;2023-05-19T00:59:22;100785.38;;;10.16;95.62
804;BME280;25687;49.976;8.240;2023-05-19T01:01:47;100782.69;;;10.20;96.31
804;BME280;25687;49.976;8.240;2023-05-19T01:04:19;100784.13;;;10.25;95.40
804;BME280;25687;49.976;8.240;2023-05-19T01:06:49;100776.44;;;10.25;95.95
804;BME280;25687;49.976;8.240;2023-05-19T01:09:20;100780.75;;;10.25;96.00
804;BME280;25687;49.976;8.240;2023-05-19T01:11:45;100783.50;;;10.20;96.46
804;BME280;25687;49.976;8.240;2023-05-19T01:14:10;100781.56;;;10.25;95.49
804;BME280;25687;49.976;8.240;2023-05-19T01:16:39;100786.78;;;10.24;95.89
804;BME280;25687;49.976;8.240;2023-05-19T01:22:40;100780.88;;;10.01;97.42
804;BME280;25687;49.976;8.240;2023-05-19T01:28:41;100775.28;;;9.91;98.03
804;BME280;25687;49.976;8.240;2023-05-19T01:31:00;100778.41;;;9.98;97.69
804;BME280;25687;49.976;8.240;2023-05-19T01:33:29;100774.31;;;9.94;98.26
804;BME280;25687;49.976;8.240;2023-05-19T01:35:56;100781.13;;;9.95;98.68
804;BME280;25687;49.976;8.240;2023-05-19T01:38:23;100783.88;;;9.90;98.38
804;BME280;25687;49.976;8.240;2023-05-19T01:40:50;100781.31;;;9.90;98.92
804;BME280;25687;49.976;8.240;2023-05-19T01:43:20;100776.41;;;9.84;100.00
804;BME280;25687;49.976;8.240;2023-05-19T01:45:46;100783.69;;;9.95;98.29
804;BME280;25687;49.976;8.240;2023-05-19T01:48:13;100784.53;;;9.95;98.84
804;BME280;25687;49.976;8.240;2023-05-19T01:50:40;100785.81;;;9.85;99.20
804;BME280;25687;49.976;8.240;2023-05-19T01:53:05;100784.56;;;9.73;100.00
804;BME280;25687;49.976;8.240;2023-05-19T01:55:31;100786.53;;;9.66;100.00
804;BME280;25687;49.976;8.240;2023-05-19T02:03:46;100788.50;;;9.37;100.00
804;BME280;25687;49.976;8.240;2023-05-19T02:06:40;100785.94;;;9.15;100.00
804;BME280;25687;49.976;8.240;2023-05-19T02:09:25;100793.25;;;9.02;100.00
804;BME280;25687;49.976;8.240;2023-05-19T02:14:44;100790.09;;;8.94;100.00
804;BME280;25687;49.976;8.240;2023-05-19T02:17:15;100794.69;;;8.86;100.00
804;BME280;25687;49.976;8.240;2023-05-19T02:19:42;100794.78;;;8.83;100.00
804;BME280;25687;49.976;8.240;2023-05-19T02:22:08;100797.53;;;8.78;100.00
804;BME280;25687;49.976;8.240;2023-05-19T02:24:34;100791.63;;;8.76;100.00
804;BME280;25687;49.976;8.240;2023-05-19T02:27:01;100791.84;;;8.70;100.00
804;BME280;25687;49.976;8.240;2023-05-19T02:29:27;100794.69;;;8.62;100.00
804;BME280;25687;49.976;8.240;2023-05-19T02:31:52;100788.88;;;8.57;100.00
804;BME280;25687;49.976;8.240;2023-05-19T02:34:17;100791.00;;;8.44;100.00
804;BME280;25687;49.976;8.240;2023-05-19T02:36:43;100789.50;;;8.38;100.00
804;BME280;25687;49.976;8.240;2023-05-19T02:39:09;100785.69;;;8.23;100.00
804;BME280;25687;49.976;8.240;2023-05-19T02:41:35;100780.06;;;8.14;100.00
804;BME280;25687;49.976;8.240;2023-05-19T02:44:00;100783.03;;;8.01;100.00
804;BME280;25687;49.976;8.240;2023-05-19T02:46:25;100780.50;;;8.00;100.00
804;BME280;25687;49.976;8.240;2023-05-19T02:48:51;100778.16;;;7.94;100.00
804;BME280;25687;49.976;8.240;2023-05-19T02:51:17;100772.53;;;7.82;100.00
804;BME280;25687;49.976;8.240;2023-05-19T02:53:42;100774.03;;;7.89;100.00
804;BME280;25687;49.976;8.240;2023-05-19T02:56:07;100769.00;;;7.86;100.00
804;BME280;25687;49.976;8.240;2023-05-19T02:58:32;100779.66;;;7.74;100.00
804;BME280;25687;49.976;8.240;2023-05-19T03:00:58;100768.69;;;7.69;100.00
804;BME280;25687;49.976;8.240;2023-05-19T03:03:23;100767.06;;;7.66;100.00
804;BME280;25687;49.976;8.240;2023-05-19T03:05:48;100764.69;;;7.62;100.00
804;BME280;25687;49.976;8.240;2023-05-19T03:08:13;100763.19;;;7.54;100.00
804;BME280;25687;49.976;8.240;2023-05-19T03:10:39;100764.31;;;7.46;100.00
804;BME280;25687;49.976;8.240;2023-05-19T03:13:04;100769.25;;;7.50;100.00
804;BME280;25687;49.976;8.240;2023-05-19T03:15:30;100767.50;;;7.52;100.00
804;BME280;25687;49.976;8.240;2023-05-19T03:17:55;100764.31;;;7.46;100.00
804;BME280;25687;49.976;8.240;2023-05-19T03:20:21;100773.81;;;7.42;100.00
804;BME280;25687;49.976;8.240;2023-05-19T03:22:46;100776.88;;;7.25;100.00
804;BME280;25687;49.976;8.240;2023-05-19T03:25:11;100778.41;;;7.31;100.00
804;BME280;25687;49.976;8.240;2023-05-19T03:27:37;100780.13;;;7.30;100.00
804;BME280;25687;49.976;8.240;2023-05-19T03:30:02;100774.31;;;7.25;100.00
804;BME280;25687;49.976;8.240;2023-05-19T03:32:28;100782.63;;;7.03;100.00
804;BME280;25687;49.976;8.240;2023-05-19T03:34:54;100780.09;;;7.02;100.00
804;BME280;25687;49.976;8.240;2023-05-19T03:37:19;100782.47;;;7.08;100.00
804;BME280;25687;49.976;8.240;2023-05-19T03:39:44;100779.91;;;7.08;100.00
804;BME280;25687;49.976;8.240;2023-05-19T03:42:10;100791.75;;;7.12;100.00
804;BME280;25687;49.976;8.240;2023-05-19T03:44:35;100783.91;;;7.18;100.00
804;BME280;25687;49.976;8.240;2023-05-19T03:47:00;100786.47;;;7.18;100.00
804;BME280;25687;49.976;8.240;2023-05-19T03:49:25;100776.81;;;7.26;100.00
804;BME280;25687;49.976;8.240;2023-05-19T03:51:51;100776.91;;;7.23;100.00
804;BME280;25687;49.976;8.240;2023-05-19T03:54:16;100776.75;;;7.28;100.00
804;BME280;25687;49.976;8.240;2023-05-19T03:56:41;100776.00;;;7.26;100.00
804;BME280;25687;49.976;8.240;2023-05-19T03:59:07;100779.31;;;7.28;100.00
804;BME280;25687;49.976;8.240;2023-05-19T04:01:35;100778.81;;;7.17;100.00
804;BME280;25687;49.976;8.240;2023-05-19T04:04:00;100771.13;;;7.17;100.00
804;BME280;25687;49.976;8.240;2023-05-19T04:06:26;100778.44;;;7.29;100.00
804;BME280;25687;49.976;8.240;2023-05-19T04:08:51;100780.72;;;7.38;100.00
804;BME280;25687;49.976;8.240;2023-05-19T04:11:16;100782.22;;;7.46;100.00
804;BME280;25687;49.976;8.240;2023-05-19T04:13:43;100778.94;;;7.42;100.00
804;BME280;25687;49.976;8.240;2023-05-19T04:16:09;100783.81;;;7.50;100.00
804;BME280;25687;49.976;8.240;2023-05-19T04:18:34;100787.84;;;7.57;100.00
804;BME280;25687;49.976;8.240;2023-05-19T04:20:59;100784.78;;;7.46;100.00
804;BME280;25687;49.976;8.240;2023-05-19T04:23:25;100784.63;;;7.50;100.00
804;BME280;25687;49.976;8.240;2023-05-19T04:25:52;100786.06;;;7.59;100.00
804;BME280;25687;49.976;8.240;2023-05-19T04:28:18;100788.44;;;7.65;100.00
804;BME280;25687;49.976;8.240;2023-05-19T04:30:43;100782.22;;;7.74;100.00
804;BME280;25687;49.976;8.240;2023-05-19T04:33:10;100782.69;;;7.85;100.00
804;BME280;25687;49.976;8.240;2023-05-19T04:35:37;100790.97;;;7.94;100.00
804;BME280;25687;49.976;8.240;2023-05-19T04:38:03;100793.13;;;8.06;100.00
804;BME280;25687;49.976;8.240;2023-05-19T04:40:29;100794.19;;;7.99;100.00
804;BME280;25687;49.976;8.240;2023-05-19T04:42:55;100803.47;;;8.03;100.00
804;BME280;25687;49.976;8.240;2023-05-19T04:45:21;100800.31;;;8.21;100.00
804;BME280;25687;49.976;8.240;2023-05-19T04:47:47;100801.13;;;8.22;100.00
804;BME280;25687;49.976;8.240;2023-05-19T04:50:13;100807.25;;;8.43;100.00
804;BME280;25687;49.976;8.240;2023-05-19T04:52:40;100802.59;;;8.56;100.00
804;BME280;25687;49.976;8.240;2023-05-19T04:55:06;100795.28;;;8.69;100.00
804;BME280;25687;49.976;8.240;2023-05-19T04:57:32;100798.22;;;8.83;100.00
804;BME280;25687;49.976;8.240;2023-05-19T04:59:57;100796.81;;;8.98;100.00
804;BME280;25687;49.976;8.240;2023-05-19T05:02:27;100798.31;;;9.04;100.00
804;BME280;25687;49.976;8.240;2023-05-19T05:04:52;100801.94;;;9.22;100.00
804;BME280;25687;49.976;8.240;2023-05-19T05:07:19;100791.75;;;9.19;100.00
804;BME280;25687;49.976;8.240;2023-05-19T05:09:44;100795.97;;;9.44;100.00
804;BME280;25687;49.976;8.240;2023-05-19T05:12:10;100798.78;;;9.60;100.00
804;BME280;25687;49.976;8.240;2023-05-19T05:14:36;100794.91;;;9.72;100.00
804;BME280;25687;49.976;8.240;2023-05-19T05:17:01;100802.44;;;9.76;100.00
804;BME280;25687;49.976;8.240;2023-05-19T05:19:27;100799.69;;;10.01;100.00
804;BME280;25687;49.976;8.240;2023-05-19T05:21:52;100799.63;;;10.24;100.00
804;BME280;25687;49.976;8.240;2023-05-19T05:24:18;100808.22;;;10.45;100.00
804;BME280;25687;49.976;8.240;2023-05-19T05:26:43;100805.31;;;10.53;100.00
804;BME280;25687;49.976;8.240;2023-05-19T05:29:09;100795.13;;;10.70;100.00
804;BME280;25687;49.976;8.240;2023-05-19T05:31:34;100797.56;;;10.92;100.00
804;BME280;25687;49.976;8.240;2023-05-19T05:34:01;100795.06;;;11.10;100.00
804;BME280;25687;49.976;8.240;2023-05-19T05:36:26;100791.03;;;11.23;100.00
804;BME280;25687;49.976;8.240;2023-05-19T05:38:51;100796.50;;;11.35;100.00
804;BME280;25687;49.976;8.240;2023-05-19T05:41:16;100794.75;;;11.72;100.00
804;BME280;25687;49.976;8.240;2023-05-19T05:43:42;100791.75;;;11.81;100.00
804;BME280;25687;49.976;8.240;2023-05-19T05:46:07;100791.41;;;12.06;100.00
804;BME280;25687;49.976;8.240;2023-05-19T05:48:33;100788.13;;;12.20;98.78
804;BME280;25687;49.976;8.240;2023-05-19T05:50:58;100783.00;;;12.54;98.00
804;BME280;25687;49.976;8.240;2023-05-19T05:53:28;100792.59;;;12.52;96.72
804;BME280;25687;49.976;8.240;2023-05-19T05:55:54;100793.84;;;12.61;95.05
804;BME280;25687;49.976;8.240;2023-05-19T05:58:20;100785.03;;;12.65;91.91
804;BME280;25687;49.976;8.240;2023-05-19T06:00:46;100784.97;;;12.49;89.26
804;BME280;25687;49.976;8.240;2023-05-19T06:03:13;100785.28;;;12.42;87.68
804;BME280;25687;49.976;8.240;2023-05-19T06:05:38;100777.56;;;12.42;83.98
804;BME280;25687;49.976;8.240;2023-05-19T06:08:04;100776.38;;;12.66;82.97
804;BME280;25687;49.976;8.240;2023-05-19T06:10:29;100775.94;;;12.57;83.75
804;BME280;25687;49.976;8.240;2023-05-19T06:12:55;100770.66;;;12.77;82.96
804;BME280;25687;49.976;8.240;2023-05-19T06:15:20;100775.41;;;13.16;79.78
804;BME280;25687;49.976;8.240;2023-05-19T06:17:46;100779.16;;;13.27;76.98
804;BME280;25687;49.976;8.240;2023-05-19T06:20:11;100778.81;;;13.01;76.77
804;BME280;25687;49.976;8.240;2023-05-19T06:22:37;100780.81;;;13.12;76.94
804;BME280;25687;49.976;8.240;2023-05-19T06:25:02;100774.00;;;13.43;75.97
804;BME280;25687;49.976;8.240;2023-05-19T06:27:28;100779.47;;;13.68;68.80
804;BME280;25687;49.976;8.240;2023-05-19T06:29:53;100779.03;;;14.21;68.77
804;BME280;25687;49.976;8.240;2023-05-19T06:32:19;100779.03;;;14.35;66.40
804;BME280;25687;49.976;8.240;2023-05-19T06:34:44;100768.69;;;14.35;67.23
804;BME280;25687;49.976;8.240;2023-05-19T06:37:09;100774.38;;;15.13;60.05
804;BME280;25687;49.976;8.240;2023-05-19T06:39:36;100781.88;;;15.58;56.56
804;BME280;25687;49.976;8.240;2023-05-19T06:42:02;100771.00;;;15.53;54.26
804;BME280;25687;49.976;8.240;2023-05-19T06:44:27;100779.09;;;15.61;54.38
804;BME280;25687;49.976;8.240;2023-05-19T06:46:52;100776.91;;;15.55;53.07
804;BME280;25687;49.976;8.240;2023-05-19T06:49:18;100783.63;;;15.17;54.92
804;BME280;25687;49.976;8.240;2023-05-19T06:51:43;100776.81;;;15.01;55.77
804;BME280;25687;49.976;8.240;2023-05-19T06:54:08;100782.34;;;15.37;54.28
804;BME280;25687;49.976;8.240;2023-05-19T06:56:36;100776.38;;;15.49;53.41
804;BME280;25687;49.976;8.240;2023-05-19T06:59:02;100774.88;;;16.13;51.99
804;BME280;25687;49.976;8.240;2023-05-19T07:01:28;100779.50;;;16.59;50.22
804;BME280;25687;49.976;8.240;2023-05-19T07:03:54;100771.72;;;16.72;49.93
804;BME280;25687;49.976;8.240;2023-05-19T07:06:19;100777.81;;;17.21;48.02
804;BME280;25687;49.976;8.240;2023-05-19T07:08:44;100773.41;;;17.35;47.74
804;BME280;25687;49.976;8.240;2023-05-19T07:11:10;100771.44;;;17.50;47.00
804;BME280;25687;49.976;8.240;2023-05-19T07:13:36;100779.44;;;16.09;49.57
804;BME280;25687;49.976;8.240;2023-05-19T07:16:01;100775.81;;;15.72;51.39
804;BME280;25687;49.976;8.240;2023-05-19T07:18:26;100768.88;;;15.72;52.06
804;BME280;25687;49.976;8.240;2023-05-19T07:20:55;100773.00;;;16.54;50.13
804;BME280;25687;49.976;8.240;2023-05-19T07:23:21;100762.78;;;17.14;47.80
804;BME280;25687;49.976;8.240;2023-05-19T07:25:46;100768.53;;;17.06;47.32
804;BME280;25687;49.976;8.240;2023-05-19T07:28:12;100772.53;;;17.23;45.74
804;BME280;25687;49.976;8.240;2023-05-19T07:30:37;100769.53;;;17.16;45.78
804;BME280;25687;49.976;8.240;2023-05-19T07:33:03;100770.38;;;17.17;45.60
804;BME280;25687;49.976;8.240;2023-05-19T07:35:28;100769.13;;;17.09;47.13
804;BME280;25687;49.976;8.240;2023-05-19T07:37:53;100771.03;;;16.82;47.49
804;BME280;25687;49.976;8.240;2023-05-19T07:40:18;100758.84;;;16.71;48.49
804;BME280;25687;49.976;8.240;2023-05-19T07:42:44;100759.53;;;17.23;47.09
804;BME280;25687;49.976;8.240;2023-05-19T07:45:10;100764.13;;;17.55;46.81
804;BME280;25687;49.976;8.240;2023-05-19T07:47:35;100761.25;;;18.18;45.16
804;BME280;25687;49.976;8.240;2023-05-19T07:50:01;100761.72;;;18.68;43.68
804;BME280;25687;49.976;8.240;2023-05-19T07:52:26;100757.22;;;19.26;42.68
804;BME280;25687;49.976;8.240;2023-05-19T07:54:51;100758.56;;;19.74;41.34
804;BME280;25687;49.976;8.240;2023-05-19T07:57:17;100764.34;;;20.51;40.17
804;BME280;25687;49.976;8.240;2023-05-19T07:59:43;100762.94;;;19.94;40.30
804;BME280;25687;49.976;8.240;2023-05-19T08:02:08;100763.13;;;21.15;38.42
804;BME280;25687;49.976;8.240;2023-05-19T08:04:33;100762.72;;;20.28;39.23
804;BME280;25687;49.976;8.240;2023-05-19T08:06:59;100766.78;;;18.93;41.99
804;BME280;25687;49.976;8.240;2023-05-19T08:09:24;100760.19;;;20.89;38.67
804;BME280;25687;49.976;8.240;2023-05-19T08:11:49;100763.25;;;21.14;38.18
804;BME280;25687;49.976;8.240;2023-05-19T08:14:15;100761.88;;;21.39;37.16
804;BME280;25687;49.976;8.240;2023-05-19T08:16:40;100770.78;;;22.70;36.12
804;BME280;25687;49.976;8.240;2023-05-19T08:19:10;100767.75;;;22.75;35.86
804;BME280;25687;49.976;8.240;2023-05-19T08:21:35;100766.56;;;22.87;35.29
804;BME280;25687;49.976;8.240;2023-05-19T08:24:01;100771.38;;;22.36;35.35
804;BME280;25687;49.976;8.240;2023-05-19T08:26:26;100761.59;;;23.57;33.97
804;BME280;25687;49.976;8.240;2023-05-19T08:28:52;100768.56;;;23.40;33.91
804;BME280;25687;49.976;8.240;2023-05-19T08:31:17;100762.34;;;22.11;36.37
804;BME280;25687;49.976;8.240;2023-05-19T08:33:43;100761.63;;;22.09;34.92
804;BME280;25687;49.976;8.240;2023-05-19T08:36:08;100758.75;;;22.50;35.43
804;BME280;25687;49.976;8.240;2023-05-19T08:38:34;100756.00;;;22.51;35.38
804;BME280;25687;49.976;8.240;2023-05-19T08:40:59;100749.41;;;22.00;35.12
804;BME280;25687;49.976;8.240;2023-05-19T08:43:25;100746.00;;;21.89;35.06
804;BME280;25687;49.976;8.240;2023-05-19T08:45:51;100746.03;;;21.40;36.68
804;BME280;25687;49.976;8.240;2023-05-19T08:48:18;100743.16;;;22.20;35.13
804;BME280;25687;49.976;8.240;2023-05-19T08:50:50;100739.06;;;22.92;35.00
804;BME280;25687;49.976;8.240;2023-05-19T08:53:26;100733.09;;;24.14;32.77
804;BME280;25687;49.976;8.240;2023-05-19T08:56:10;100731.75;;;23.84;31.98
804;BME280;25687;49.976;8.240;2023-05-19T08:58:40;100745.16;;;22.64;33.29
804;BME280;25687;49.976;8.240;2023-05-19T09:01:08;100726.06;;;23.44;33.19
804;BME280;25687;49.976;8.240;2023-05-19T09:03:34;100725.59;;;23.93;31.86
804;BME280;25687;49.976;8.240;2023-05-19T09:06:05;100727.88;;;23.44;32.58
804;BME280;25687;49.976;8.240;2023-05-19T09:08:32;100731.94;;;23.38;34.13
804;BME280;25687;49.976;8.240;2023-05-19T09:10:57;100708.34;;;23.64;33.43
804;BME280;25687;49.976;8.240;2023-05-19T09:13:22;100714.56;;;23.19;34.05
804;BME280;25687;49.976;8.240;2023-05-19T09:15:49;100715.19;;;22.67;33.71
804;BME280;25687;49.976;8.240;2023-05-19T09:18:15;100700.16;;;23.05;34.56
804;BME280;25687;49.976;8.240;2023-05-19T09:20:42;100697.50;;;24.88;32.00
804;BME280;25687;49.976;8.240;2023-05-19T09:23:12;100708.03;;;23.94;32.19
804;BME280;25687;49.976;8.240;2023-05-19T09:25:48;100700.03;;;24.04;31.30
804;BME280;25687;49.976;8.240;2023-05-19T09:28:14;100699.06;;;24.56;31.70
804;BME280;25687;49.976;8.240;2023-05-19T09:30:46;100688.13;;;25.26;30.74
804;BME280;25687;49.976;8.240;2023-05-19T09:33:16;100704.53;;;24.20;30.46
804;BME280;25687;49.976;8.240;2023-05-19T09:35:46;100698.38;;;22.87;32.79
804;BME280;25687;49.976;8.240;2023-05-19T09:38:17;100681.13;;;23.65;33.30
804;BME280;25687;49.976;8.240;2023-05-19T09:40:42;100679.47;;;23.64;32.23
804;BME280;25687;49.976;8.240;2023-05-19T09:43:08;100683.41;;;22.52;32.87
804;BME280;25687;49.976;8.240;2023-05-19T09:45:33;100680.53;;;21.89;33.86
804;BME280;25687;49.976;8.240;2023-05-19T09:48:02;100667.03;;;21.84;34.26
804;BME280;25687;49.976;8.240;2023-05-19T09:50:28;100668.63;;;21.67;34.15
804;BME280;25687;49.976;8.240;2023-05-19T09:52:55;100672.84;;;22.16;33.10
804;BME280;25687;49.976;8.240;2023-05-19T09:55:24;100669.00;;;20.55;36.43
804;BME280;25687;49.976;8.240;2023-05-19T09:57:49;100666.50;;;19.50;37.03
804;BME280;25687;49.976;8.240;2023-05-19T10:00:17;100672.81;;;19.48;37.61
804;BME280;25687;49.976;8.240;2023-05-19T10:02:44;100664.66;;;19.20;37.76
804;BME280;25687;49.976;8.240;2023-05-19T10:05:14;100655.63;;;20.28;36.47
804;BME280;25687;49.976;8.240;2023-05-19T10:07:42;100666.91;;;21.86;35.08
804;BME280;25687;49.976;8.240;2023-05-19T10:10:11;100648.38;;;22.53;33.52
804;BME280;25687;49.976;8.240;2023-05-19T10:12:38;100652.78;;;21.59;33.79
804;BME280;25687;49.976;8.240;2023-05-19T10:15:06;100662.06;;;22.65;32.59
804;BME280;25687;49.976;8.240;2023-05-19T10:17:33;100656.56;;;21.07;34.15
804;BME280;25687;49.976;8.240;2023-05-19T10:19:59;100640.53;;;20.61;35.05
804;BME280;25687;49.976;8.240;2023-05-19T10:22:25;100650.03;;;20.53;34.23
804;BME280;25687;49.976;8.240;2023-05-19T10:24:52;100660.59;;;20.00;33.88
804;BME280;25687;49.976;8.240;2023-05-19T10:27:20;100648.88;;;19.00;34.51
804;BME280;25687;49.976;8.240;2023-05-19T10:29:48;100649.22;;;19.28;35.66
804;BME280;25687;49.976;8.240;2023-05-19T10:32:18;100647.19;;;19.32;35.22
804;BME280;25687;49.976;8.240;2023-05-19T10:37:58;100624.19;;;19.47;35.01
804;BME280;25687;49.976;8.240;2023-05-19T10:40:09;100628.78;;;19.12;37.13
804;BME280;25687;49.976;8.240;2023-05-19T10:43:04;100642.09;;;19.30;35.99
804;BME280;25687;49.976;8.240;2023-05-19T10:45:35;100615.50;;;19.15;35.85
804;BME280;25687;49.976;8.240;2023-05-19T10:48:09;100623.56;;;19.33;35.86
804;BME280;25687;49.976;8.240;2023-05-19T10:50:35;100615.38;;;19.38;35.34
804;BME280;25687;49.976;8.240;2023-05-19T10:53:01;100623.41;;;19.25;35.91
804;BME280;25687;49.976;8.240;2023-05-19T10:55:54;100611.09;;;19.37;36.54
804;BME280;25687;49.976;8.240;2023-05-19T10:58:36;100612.31;;;19.33;36.04
804;BME280;25687;49.976;8.240;2023-05-19T11:01:06;100605.06;;;19.89;36.55
804;BME280;25687;49.976;8.240;2023-05-19T11:03:43;100614.88;;;19.75;35.49
804;BME280;25687;49.976;8.240;2023-05-19T11:06:32;100613.56;;;19.39;36.20
804;BME280;25687;49.976;8.240;2023-05-19T11:08:59;100628.19;;;19.82;36.31
804;BME280;25687;49.976;8.240;2023-05-19T11:11:26;100622.41;;;19.26;37.34
804;BME280;25687;49.976;8.240;2023-05-19T11:14:09;100628.75;;;18.91;37.46
804;BME280;25687;49.976;8.240;2023-05-19T11:16:35;100624.25;;;18.93;38.11
804;BME280;25687;49.976;8.240;2023-05-19T11:19:01;100608.78;;;18.69;38.50
804;BME280;25687;49.976;8.240;2023-05-19T11:21:48;100626.22;;;18.68;38.88
804;BME280;25687;49.976;8.240;2023-05-19T11:24:38;100608.13;;;18.55;38.33
804;BME280;25687;49.976;8.240;2023-05-19T11:27:24;100622.31;;;18.63;38.81
804;BME280;25687;49.976;8.240;2023-05-19T11:29:50;100613.06;;;19.02;39.17
804;BME280;25687;49.976;8.240;2023-05-19T11:32:16;100607.09;;;19.33;38.62
804;BME280;25687;49.976;8.240;2023-05-19T11:34:43;100605.81;;;19.27;37.93
804;BME280;25687;49.976;8.240;2023-05-19T11:37:08;100604.22;;;19.15;38.55
804;BME280;25687;49.976;8.240;2023-05-19T11:39:35;100602.41;;;19.27;38.07
804;BME280;25687;49.976;8.240;2023-05-19T11:42:01;100604.84;;;19.49;37.66
804;BME280;25687;49.976;8.240;2023-05-19T11:44:26;100594.41;;;19.49;37.70
804;BME280;25687;49.976;8.240;2023-05-19T11:46:51;100591.41;;;19.54;37.96
804;BME280;25687;49.976;8.240;2023-05-19T11:49:17;100596.63;;;19.54;37.69
804;BME280;25687;49.976;8.240;2023-05-19T11:51:43;100585.72;;;19.70;37.33
804;BME280;25687;49.976;8.240;2023-05-19T11:54:11;100594.25;;;19.20;37.24
804;BME280;25687;49.976;8.240;2023-05-19T11:56:41;100594.94;;;19.22;38.63
804;BME280;25687;49.976;8.240;2023-05-19T11:59:09;100602.69;;;18.91;37.40
804;BME280;25687;49.976;8.240;2023-05-19T12:01:35;100591.47;;;18.91;37.39
804;BME280;25687;49.976;8.240;2023-05-19T12:04:01;100590.88;;;19.08;37.06
804;BME280;25687;49.976;8.240;2023-05-19T12:06:27;100581.97;;;19.32;36.69
804;BME280;25687;49.976;8.240;2023-05-19T12:08:53;100578.78;;;20.31;36.35
804;BME280;25687;49.976;8.240;2023-05-19T12:11:19;100571.88;;;20.20;36.81
804;BME280;25687;49.976;8.240;2023-05-19T12:13:46;100575.50;;;19.57;37.75
804;BME280;25687;49.976;8.240;2023-05-19T12:16:11;100581.88;;;19.74;37.75
804;BME280;25687;49.976;8.240;2023-05-19T12:18:37;100578.00;;;19.90;37.48
804;BME280;25687;49.976;8.240;2023-05-19T12:21:03;100576.25;;;20.10;37.18
804;BME280;25687;49.976;8.240;2023-05-19T12:23:29;100585.66;;;20.32;37.30
804;BME280;25687;49.976;8.240;2023-05-19T12:25:58;100575.25;;;19.91;36.98
804;BME280;25687;49.976;8.240;2023-05-19T12:28:24;100578.59;;;20.13;37.50
804;BME280;25687;49.976;8.240;2023-05-19T12:30:50;100575.25;;;19.91;37.72
804;BME280;25687;49.976;8.240;2023-05-19T12:33:17;100573.00;;;20.27;37.51
804;BME280;25687;49.976;8.240;2023-05-19T12:35:43;100569.72;;;20.55;37.26
804;BME280;25687;49.976;8.240;2023-05-19T12:38:10;100565.56;;;20.32;37.79
804;BME280;25687;49.976;8.240;2023-05-19T12:40:36;100568.44;;;20.20;37.84
804;BME280;25687;49.976;8.240;2023-05-19T12:43:03;100554.78;;;19.65;38.56
804;BME280;25687;49.976;8.240;2023-05-19T12:45:33;100563.06;;;19.71;39.18
804;BME280;25687;49.976;8.240;2023-05-19T12:48:02;100560.94;;;19.86;39.16
804;BME280;25687;49.976;8.240;2023-05-19T12:50:29;100560.44;;;20.02;39.42
804;BME280;25687;49.976;8.240;2023-05-19T12:52:55;100561.72;;;19.76;39.33
804;BME280;25687;49.976;8.240;2023-05-19T12:55:20;100545.53;;;19.82;40.11
804;BME280;25687;49.976;8.240;2023-05-19T12:57:49;100551.91;;;19.90;39.41
804;BME280;25687;49.976;8.240;2023-05-19T13:00:24;100547.88;;;19.86;40.30
804;BME280;25687;49.976;8.240;2023-05-19T13:03:13;100551.44;;;19.84;40.50
804;BME280;25687;49.976;8.240;2023-05-19T13:05:41;100554.41;;;20.11;40.54
804;BME280;25687;49.976;8.240;2023-05-19T13:08:12;100551.59;;;19.83;40.15
804;BME280;25687;49.976;8.240;2023-05-19T13:10:38;100548.97;;;19.52;40.84
804;BME280;25687;49.976;8.240;2023-05-19T13:13:06;100550.94;;;19.60;40.88
804;BME280;25687;49.976;8.240;2023-05-19T13:15:33;100549.31;;;19.68;40.42
804;BME280;25687;49.976;8.240;2023-05-19T13:18:00;100545.06;;;20.08;39.81
804;BME280;25687;49.976;8.240;2023-05-19T13:20:26;100534.34;;;19.71;41.69
804;BME280;25687;49.976;8.240;2023-05-19T13:22:51;100542.03;;;19.62;41.66
804;BME280;25687;49.976;8.240;2023-05-19T13:25:16;100538.06;;;19.78;41.06
804;BME280;25687;49.976;8.240;2023-05-19T13:27:44;100528.66;;;19.87;41.14